createdAt,value
2023-04-27T00:00:06.813Z,91.90
2023-04-27T00:02:36.228Z,91.50
2023-04-27T00:05:04.969Z,91.40
2023-04-27T00:07:32.702Z,91.40
2023-04-27T00:10:00.616Z,91.20
2023-04-27T00:12:28.420Z,91.00
2023-04-27T00:14:56.590Z,90.40
2023-04-27T00:17:24.382Z,90.20
2023-04-27T00:20:05.727Z,90.40
2023-04-27T00:22:33.859Z,90.40
2023-04-27T00:25:01.869Z,90.30
2023-04-27T00:27:29.791Z,90.80
2023-04-27T00:29:57.614Z,91.30
2023-04-27T00:32:25.652Z,91.00
2023-04-27T00:34:53.152Z,90.80
2023-04-27T00:37:20.824Z,90.50
2023-04-27T00:39:48.455Z,90.50
2023-04-27T00:42:18.863Z,90.50
2023-04-27T00:44:47.666Z,90.50
2023-04-27T00:47:16.155Z,90.40
2023-04-27T00:49:44.806Z,90.40
2023-04-27T00:52:12.454Z,90.60
2023-04-27T00:54:39.957Z,90.60
2023-04-27T00:57:08.487Z,90.40
2023-04-27T00:59:35.807Z,90.30
2023-04-27T01:02:03.724Z,90.70
2023-04-27T01:04:32.746Z,90.60
2023-04-27T01:07:00.363Z,90.60
2023-04-27T01:09:27.856Z,90.60
2023-04-27T01:11:57.418Z,90.60
2023-04-27T01:14:24.858Z,90.50
2023-04-27T01:16:53.092Z,90.30
2023-04-27T01:19:20.586Z,90.30
2023-04-27T01:21:48.353Z,90.20
2023-04-27T01:24:16.858Z,90.30
2023-04-27T01:26:44.432Z,90.40
2023-04-27T01:29:13.087Z,90.20
2023-04-27T01:31:42.146Z,90.00
2023-04-27T01:34:09.934Z,89.50
2023-04-27T01:36:38.340Z,89.40
2023-04-27T01:39:07.769Z,89.40
2023-04-27T01:41:37.231Z,90.00
2023-04-27T01:44:05.437Z,90.00
2023-04-27T01:46:33.355Z,89.80
2023-04-27T01:49:01.735Z,89.20
2023-04-27T01:51:29.434Z,89.60
2023-04-27T01:53:56.988Z,89.80
2023-04-27T01:56:24.961Z,90.00
2023-04-27T01:59:03.934Z,89.40
2023-04-27T02:01:31.702Z,89.70
2023-04-27T02:03:59.312Z,89.90
2023-04-27T02:06:28.127Z,89.60
2023-04-27T02:08:55.519Z,89.20
2023-04-27T02:11:26.498Z,88.90
2023-04-27T02:13:55.694Z,88.60
2023-04-27T02:16:25.208Z,88.70
2023-04-27T02:18:55.180Z,88.80
2023-04-27T02:21:22.666Z,89.00
2023-04-27T02:23:50.500Z,88.50
2023-04-27T02:26:20.114Z,88.70
2023-04-27T02:28:50.567Z,88.10
2023-04-27T02:31:18.688Z,88.50
2023-04-27T02:33:47.023Z,88.50
2023-04-27T02:36:14.473Z,88.10
2023-04-27T02:38:42.436Z,87.90
2023-04-27T02:41:10.872Z,89.50
2023-04-27T02:43:38.905Z,89.30
2023-04-27T02:46:06.874Z,89.50
2023-04-27T02:48:34.540Z,89.00
2023-04-27T02:51:04.921Z,89.50
2023-04-27T02:53:33.317Z,89.70
2023-04-27T02:56:01.169Z,89.50
2023-04-27T02:58:28.601Z,89.90
2023-04-27T03:00:57.428Z,90.00
2023-04-27T03:03:25.679Z,89.80
2023-04-27T03:05:53.756Z,90.10
2023-04-27T03:08:21.333Z,90.30
2023-04-27T03:10:49.151Z,90.20
2023-04-27T03:13:16.794Z,89.90
2023-04-27T03:15:44.634Z,90.00
2023-04-27T03:18:13.036Z,90.10
2023-04-27T03:20:41.936Z,90.40
2023-04-27T03:23:09.271Z,90.30
2023-04-27T03:25:36.694Z,90.50
2023-04-27T03:28:04.592Z,90.70
2023-04-27T03:30:32.642Z,90.70
2023-04-27T03:33:00.393Z,90.60
2023-04-27T03:35:27.752Z,90.40
2023-04-27T03:37:55.474Z,90.80
2023-04-27T03:40:23.505Z,90.50
2023-04-27T03:42:51.387Z,90.60
2023-04-27T03:45:19.400Z,90.80
2023-04-27T03:47:47.599Z,90.80
2023-04-27T03:50:25.089Z,90.70
2023-04-27T03:52:54.035Z,90.40
2023-04-27T03:55:21.750Z,90.60
2023-04-27T03:57:49.779Z,90.40
2023-04-27T04:00:18.596Z,90.60
2023-04-27T04:02:47.835Z,90.70
2023-04-27T04:05:15.817Z,90.60
2023-04-27T04:07:43.989Z,90.60
2023-04-27T04:10:12.325Z,90.50
2023-04-27T04:12:40.838Z,90.50
2023-04-27T04:15:08.896Z,90.40
2023-04-27T04:17:37.914Z,90.70
2023-04-27T04:20:12.232Z,91.00
2023-04-27T04:22:39.957Z,91.00
2023-04-27T04:25:08.624Z,91.00
2023-04-27T04:27:36.331Z,90.90
2023-04-27T04:30:06.596Z,91.40
2023-04-27T04:32:36.574Z,91.10
2023-04-27T04:35:05.873Z,91.70
2023-04-27T04:37:35.772Z,91.40
2023-04-27T04:40:10.857Z,91.60
2023-04-27T04:42:38.741Z,92.00
2023-04-27T04:45:08.330Z,91.80
2023-04-27T04:47:36.326Z,92.00
2023-04-27T04:50:04.467Z,92.30
2023-04-27T04:52:32.154Z,92.90
2023-04-27T04:54:59.822Z,92.90
2023-04-27T04:57:27.603Z,93.10
2023-04-27T04:59:55.624Z,93.50
2023-04-27T05:02:23.123Z,93.60
2023-04-27T05:04:52.655Z,94.10
2023-04-27T05:07:24.717Z,93.90
2023-04-27T05:09:50.582Z,94.00
2023-04-27T05:12:18.089Z,94.60
2023-04-27T05:14:46.163Z,94.70
2023-04-27T05:17:13.653Z,94.60
2023-04-27T05:19:41.933Z,95.10
2023-04-27T05:22:09.370Z,94.70
2023-04-27T05:24:37.053Z,94.10
2023-04-27T05:27:04.781Z,93.60
2023-04-27T05:29:33.208Z,94.50
2023-04-27T05:32:00.883Z,94.40
2023-04-27T05:34:29.123Z,93.60
2023-04-27T05:36:56.752Z,93.70
2023-04-27T05:39:25.152Z,94.00
2023-04-27T05:41:54.373Z,93.80
2023-04-27T05:44:22.236Z,93.30
2023-04-27T05:46:50.657Z,93.50
2023-04-27T05:49:18.371Z,93.00
2023-04-27T05:51:46.202Z,93.40
2023-04-27T05:54:13.802Z,92.80
2023-04-27T05:56:41.682Z,92.70
2023-04-27T05:59:09.970Z,92.80
2023-04-27T06:01:37.892Z,92.80
2023-04-27T06:04:05.806Z,92.80
2023-04-27T06:06:34.035Z,92.70
2023-04-27T06:09:02.069Z,92.70
2023-04-27T06:11:30.169Z,92.50
2023-04-27T06:13:58.313Z,92.40
2023-04-27T06:16:25.672Z,92.40
2023-04-27T06:18:53.400Z,92.60
2023-04-27T06:21:20.756Z,92.60
2023-04-27T06:23:49.107Z,93.50
2023-04-27T06:26:17.212Z,93.10
2023-04-27T06:28:46.134Z,93.10
2023-04-27T06:31:14.231Z,93.30
2023-04-27T06:33:41.693Z,93.30
2023-04-27T06:36:29.218Z,93.00
2023-04-27T06:38:57.173Z,92.90
2023-04-27T06:41:27.407Z,92.90
2023-04-27T06:43:57.382Z,92.90
2023-04-27T06:46:25.252Z,92.80
2023-04-27T06:48:54.186Z,92.50
2023-04-27T06:51:21.868Z,90.40
2023-04-27T06:53:50.379Z,87.00
2023-04-27T06:56:21.382Z,83.70
2023-04-27T06:58:48.821Z,82.30
2023-04-27T07:01:17.547Z,75.70
2023-04-27T07:03:45.412Z,75.40
2023-04-27T07:06:13.585Z,73.20
2023-04-27T07:08:41.302Z,71.50
2023-04-27T07:11:08.916Z,71.10
2023-04-27T07:13:36.836Z,69.00
2023-04-27T07:16:05.390Z,63.00
2023-04-27T07:18:33.077Z,63.10
2023-04-27T07:21:00.703Z,63.60
2023-04-27T07:23:28.407Z,63.80
2023-04-27T07:25:55.794Z,63.70
2023-04-27T07:28:23.738Z,64.20
2023-04-27T07:30:51.773Z,64.90
2023-04-27T07:33:19.461Z,65.60
2023-04-27T07:35:47.983Z,64.00
2023-04-27T07:38:17.654Z,64.00
2023-04-27T07:40:46.683Z,65.10
2023-04-27T07:43:15.931Z,65.30
2023-04-27T07:45:44.013Z,62.10
2023-04-27T07:48:11.922Z,64.10
2023-04-27T07:50:40.250Z,65.30
2023-04-27T07:53:08.306Z,66.20
2023-04-27T07:55:36.562Z,65.40
2023-04-27T07:58:05.303Z,64.40
2023-04-27T08:00:32.894Z,64.00
2023-04-27T08:03:00.827Z,62.10
2023-04-27T08:05:29.126Z,60.60
2023-04-27T08:07:57.494Z,58.70
2023-04-27T08:10:25.294Z,59.60
2023-04-27T08:12:53.004Z,59.50
2023-04-27T08:15:21.540Z,58.30
2023-04-27T08:17:49.406Z,58.20
2023-04-27T08:20:17.005Z,57.70
2023-04-27T08:22:44.680Z,57.90
2023-04-27T08:25:15.948Z,57.70
2023-04-27T08:27:43.974Z,58.40
2023-04-27T08:30:12.476Z,59.50
2023-04-27T08:32:40.442Z,58.20
2023-04-27T08:35:07.923Z,58.40
2023-04-27T08:37:35.565Z,59.60
2023-04-27T08:40:06.118Z,60.70
2023-04-27T08:42:34.430Z,61.30
2023-04-27T08:45:02.179Z,61.70
2023-04-27T08:47:41.671Z,60.70
2023-04-27T08:50:00.157Z,57.00
2023-04-27T08:52:29.504Z,56.70
2023-04-27T08:54:57.195Z,57.10
2023-04-27T08:57:26.337Z,56.30
2023-04-27T09:00:01.006Z,56.30
2023-04-27T09:02:30.028Z,56.60
2023-04-27T09:04:58.243Z,57.90
2023-04-27T09:07:28.738Z,58.00
2023-04-27T09:10:04.858Z,55.70
2023-04-27T09:12:32.884Z,53.90
2023-04-27T09:15:05.743Z,54.00
2023-04-27T09:17:34.335Z,54.60
2023-04-27T09:20:13.830Z,54.80
2023-04-27T09:22:48.961Z,54.90
2023-04-27T09:25:33.169Z,55.70
2023-04-27T09:28:01.459Z,55.70
2023-04-27T09:30:30.463Z,55.60
2023-04-27T09:33:02.183Z,56.30
2023-04-27T09:35:32.850Z,56.00
2023-04-27T09:38:01.621Z,56.70
2023-04-27T09:40:31.428Z,55.90
2023-04-27T09:43:02.171Z,55.30
2023-04-27T09:45:30.219Z,56.70
2023-04-27T09:47:58.902Z,57.90
2023-04-27T09:50:26.906Z,57.50
2023-04-27T09:52:54.836Z,55.20
2023-04-27T09:55:30.003Z,53.50
2023-04-27T09:58:27.147Z,54.40
2023-04-27T10:01:07.810Z,57.10
2023-04-27T10:03:59.393Z,56.60
2023-04-27T10:06:43.520Z,54.30
2023-04-27T10:09:11.772Z,56.70
2023-04-27T10:11:44.661Z,57.70
2023-04-27T10:14:18.458Z,58.50
2023-04-27T10:16:49.841Z,59.10
2023-04-27T10:19:17.754Z,58.60
2023-04-27T10:22:02.546Z,58.80
2023-04-27T10:24:42.950Z,59.50
2023-04-27T10:27:12.744Z,58.90
2023-04-27T10:29:46.261Z,59.20
2023-04-27T10:32:23.595Z,59.10
2023-04-27T10:34:54.531Z,59.50
2023-04-27T10:37:24.141Z,59.70
2023-04-27T10:39:53.558Z,60.80
2023-04-27T10:42:29.152Z,59.60
2023-04-27T10:45:00.217Z,60.40
2023-04-27T10:50:28.912Z,62.10
2023-04-27T10:53:02.919Z,62.40
2023-04-27T10:55:31.651Z,60.90
2023-04-27T10:58:00.411Z,60.60
2023-04-27T11:00:30.512Z,59.90
2023-04-27T11:03:19.975Z,61.40
2023-04-27T11:05:49.434Z,60.30
2023-04-27T11:08:19.107Z,62.20
2023-04-27T11:10:50.488Z,63.40
2023-04-27T11:13:24.261Z,61.20
2023-04-27T11:15:55.170Z,57.40
2023-04-27T11:18:25.017Z,59.40
2023-04-27T11:20:54.655Z,57.50
2023-04-27T11:23:30.876Z,58.10
2023-04-27T11:25:59.051Z,58.20
2023-04-27T11:28:27.023Z,56.10
2023-04-27T11:30:59.265Z,55.20
2023-04-27T11:33:30.994Z,56.80
2023-04-27T11:35:59.184Z,54.40
2023-04-27T11:38:29.068Z,55.80
2023-04-27T11:41:08.117Z,57.00
2023-04-27T11:43:40.426Z,57.70
2023-04-27T11:46:09.821Z,57.60
2023-04-27T11:48:38.644Z,57.30
2023-04-27T11:51:07.657Z,57.10
2023-04-27T11:53:38.171Z,57.50
2023-04-27T11:56:14.041Z,57.00
2023-04-27T11:58:42.966Z,56.40
2023-04-27T12:01:12.535Z,56.80
2023-04-27T12:03:41.195Z,54.10
2023-04-27T12:06:27.561Z,53.90
2023-04-27T12:08:38.762Z,55.00
2023-04-27T12:11:06.660Z,56.00
2023-04-27T12:13:34.407Z,56.30
2023-04-27T12:16:02.919Z,55.90
2023-04-27T12:18:30.356Z,55.70
2023-04-27T12:21:03.114Z,55.80
2023-04-27T12:23:28.960Z,56.60
2023-04-27T12:25:56.990Z,56.10
2023-04-27T12:28:24.693Z,56.80
2023-04-27T12:30:52.680Z,55.90
2023-04-27T12:33:20.970Z,55.40
2023-04-27T12:35:48.446Z,56.30
2023-04-27T12:38:16.555Z,55.80
2023-04-27T12:40:44.776Z,55.80
2023-04-27T12:43:13.340Z,57.40
2023-04-27T12:45:41.207Z,56.90
2023-04-27T12:48:09.638Z,55.50
2023-04-27T12:50:38.268Z,56.60
2023-04-27T12:53:06.271Z,57.10
2023-04-27T12:55:34.609Z,56.40
2023-04-27T12:58:03.820Z,56.40
2023-04-27T13:00:32.366Z,57.30
2023-04-27T13:03:00.481Z,55.20
2023-04-27T13:05:31.268Z,56.00
2023-04-27T13:07:58.001Z,56.30
2023-04-27T13:10:25.581Z,58.00
2023-04-27T13:12:53.294Z,57.60
2023-04-27T13:15:21.198Z,58.30
2023-04-27T13:17:49.250Z,59.80
2023-04-27T13:20:16.975Z,58.30
2023-04-27T13:22:44.729Z,59.70
2023-04-27T13:25:32.470Z,59.30
2023-04-27T13:28:00.435Z,57.90
2023-04-27T13:30:28.264Z,58.20
2023-04-27T13:32:59.788Z,58.20
2023-04-27T13:35:25.237Z,59.90
2023-04-27T13:37:54.288Z,60.00
2023-04-27T13:40:22.405Z,59.30
2023-04-27T13:42:51.241Z,58.30
2023-04-27T13:45:19.153Z,56.90
2023-04-27T13:47:47.175Z,56.20
2023-04-27T13:50:14.990Z,55.70
2023-04-27T13:52:42.900Z,55.20
2023-04-27T13:55:11.656Z,55.50
2023-04-27T13:57:39.351Z,53.20
2023-04-27T14:00:11.690Z,55.00
2023-04-27T14:02:39.729Z,52.70
2023-04-27T14:05:08.334Z,50.20
2023-04-27T14:07:36.035Z,50.30
2023-04-27T14:10:04.720Z,52.10
2023-04-27T14:12:33.085Z,53.70
2023-04-27T14:15:00.935Z,54.10
2023-04-27T14:17:28.849Z,55.00
2023-04-27T14:19:56.470Z,53.40
2023-04-27T14:22:24.269Z,52.30
2023-04-27T14:24:52.306Z,55.20
2023-04-27T14:27:20.589Z,55.40
2023-04-27T14:29:48.434Z,55.20
2023-04-27T14:32:16.414Z,54.90
2023-04-27T14:34:44.069Z,55.60
2023-04-27T14:37:11.550Z,55.10
2023-04-27T14:39:39.684Z,54.80
2023-04-27T14:42:07.834Z,52.30
2023-04-27T14:44:37.182Z,51.20
2023-04-27T14:47:04.970Z,51.90
2023-04-27T14:49:32.640Z,52.70
2023-04-27T14:52:02.816Z,52.50
2023-04-27T14:54:30.720Z,52.10
2023-04-27T14:56:59.040Z,49.90
2023-04-27T14:59:27.075Z,48.20
2023-04-27T15:01:54.934Z,47.50
2023-04-27T15:04:23.323Z,48.40
2023-04-27T15:06:51.074Z,47.50
2023-04-27T15:09:18.920Z,47.20
2023-04-27T15:11:46.988Z,47.60
2023-04-27T15:14:14.753Z,46.10
2023-04-27T15:16:42.109Z,46.50
2023-04-27T15:19:10.542Z,46.60
2023-04-27T15:21:38.559Z,45.60
2023-04-27T15:24:07.190Z,46.10
2023-04-27T15:26:35.314Z,45.60
2023-04-27T15:29:02.860Z,45.80
2023-04-27T15:31:31.286Z,44.30
2023-04-27T15:33:59.298Z,43.60
2023-04-27T15:36:28.459Z,43.20
2023-04-27T15:38:56.715Z,43.30
2023-04-27T15:41:24.266Z,43.80
2023-04-27T15:43:52.309Z,43.60
2023-04-27T15:46:20.432Z,44.30
2023-04-27T15:48:49.540Z,43.20
2023-04-27T15:51:16.977Z,42.00
2023-04-27T15:53:44.843Z,41.50
2023-04-27T15:56:12.255Z,40.90
2023-04-27T15:58:39.860Z,39.90
2023-04-27T16:01:07.784Z,40.50
2023-04-27T16:03:36.864Z,39.60
2023-04-27T16:06:05.433Z,40.00
2023-04-27T16:08:33.290Z,40.30
2023-04-27T16:11:03.897Z,40.50
2023-04-27T16:13:32.903Z,41.30
2023-04-27T16:16:00.384Z,40.50
2023-04-27T16:18:28.260Z,40.40
2023-04-27T16:20:55.735Z,41.70
2023-04-27T16:23:24.783Z,40.70
2023-04-27T16:25:52.695Z,40.30
2023-04-27T16:28:21.163Z,40.30
2023-04-27T16:30:49.590Z,40.50
2023-04-27T16:33:18.761Z,40.60
2023-04-27T16:35:46.749Z,40.50
2023-04-27T16:38:14.743Z,41.70
2023-04-27T16:40:42.728Z,41.30
2023-04-27T16:43:10.918Z,40.70
2023-04-27T16:45:41.146Z,41.50
2023-04-27T16:48:12.589Z,42.30
2023-04-27T16:50:41.248Z,41.60
2023-04-27T16:53:11.061Z,42.00
2023-04-27T16:55:38.902Z,42.00
2023-04-27T16:58:10.490Z,41.70
2023-04-27T17:00:39.858Z,42.20
2023-04-27T17:03:08.933Z,43.00
2023-04-27T17:05:36.431Z,43.40
2023-04-27T17:08:05.432Z,43.10
2023-04-27T17:10:33.739Z,43.80
2023-04-27T17:13:01.445Z,44.30
2023-04-27T17:15:29.130Z,44.90
2023-04-27T17:17:57.103Z,45.60
2023-04-27T17:20:25.098Z,47.20
2023-04-27T17:22:52.910Z,47.40
2023-04-27T17:25:21.043Z,47.90
2023-04-27T17:27:48.628Z,48.50
2023-04-27T17:30:16.352Z,49.40
2023-04-27T17:32:44.394Z,49.80
2023-04-27T17:35:11.879Z,50.20
2023-04-27T17:37:39.514Z,50.20
2023-04-27T17:40:26.931Z,50.60
2023-04-27T17:42:57.285Z,51.40
2023-04-27T17:45:26.694Z,51.40
2023-04-27T17:47:56.000Z,51.70
2023-04-27T17:50:25.407Z,52.10
2023-04-27T17:52:54.245Z,52.60
2023-04-27T17:55:22.879Z,53.20
2023-04-27T17:57:50.702Z,53.00
2023-04-27T18:00:19.240Z,52.10
2023-04-27T18:02:49.447Z,52.50
2023-04-27T18:05:18.123Z,52.70
2023-04-27T18:07:46.876Z,52.60
2023-04-27T18:10:14.669Z,52.90
2023-04-27T18:12:42.609Z,52.90
2023-04-27T18:15:10.797Z,53.40
2023-04-27T18:17:38.482Z,53.50
2023-04-27T18:20:10.111Z,53.60
2023-04-27T18:22:40.352Z,54.10
2023-04-27T18:25:10.701Z,54.00
2023-04-27T18:27:38.419Z,54.10
2023-04-27T18:30:08.776Z,54.10
2023-04-27T18:32:36.554Z,53.90
2023-04-27T18:35:05.977Z,54.20
2023-04-27T18:37:33.827Z,54.00
2023-04-27T18:40:02.575Z,53.60
2023-04-27T18:42:30.429Z,53.70
2023-04-27T18:45:00.947Z,53.30
2023-04-27T18:47:28.762Z,52.80
2023-04-27T18:49:56.413Z,53.20
2023-04-27T18:52:23.864Z,53.80
2023-04-27T18:54:51.636Z,53.90
2023-04-27T18:57:19.388Z,52.80
2023-04-27T18:59:47.530Z,53.60
2023-04-27T19:02:15.648Z,53.50
2023-04-27T19:04:52.799Z,54.10
2023-04-27T19:07:12.754Z,55.00
2023-04-27T19:09:40.869Z,55.70
2023-04-27T19:12:08.622Z,55.80
2023-04-27T19:14:36.905Z,56.10
2023-04-27T19:17:06.640Z,56.80
2023-04-27T19:19:35.992Z,55.80
2023-04-27T19:22:03.999Z,56.00
2023-04-27T19:24:32.486Z,57.40
2023-04-27T19:27:00.204Z,59.00
2023-04-27T19:29:28.001Z,59.60
2023-04-27T19:31:56.316Z,60.30
2023-04-27T19:34:23.818Z,61.70
2023-04-27T19:36:51.880Z,62.70
2023-04-27T19:39:20.661Z,63.00
2023-04-27T19:41:48.138Z,63.20
2023-04-27T19:44:15.827Z,63.90
2023-04-27T19:46:43.417Z,64.30
2023-04-27T19:49:11.917Z,64.80
2023-04-27T19:51:42.671Z,65.00
2023-04-27T19:54:10.359Z,65.50
2023-04-27T19:56:38.330Z,65.90
2023-04-27T19:59:06.011Z,66.10
2023-04-27T20:01:33.865Z,66.60
2023-04-27T20:04:01.810Z,66.50
2023-04-27T20:06:29.874Z,66.90
2023-04-27T20:08:57.972Z,67.10
2023-04-27T20:11:25.471Z,67.10
2023-04-27T20:13:53.271Z,66.80
2023-04-27T20:16:21.940Z,66.80
2023-04-27T20:18:51.056Z,66.70
2023-04-27T20:21:19.178Z,67.30
2023-04-27T20:23:49.149Z,67.00
2023-04-27T20:26:17.084Z,67.60
2023-04-27T20:28:45.288Z,67.70
2023-04-27T20:31:14.018Z,67.60
2023-04-27T20:33:41.652Z,67.90
2023-04-27T20:36:17.361Z,68.30
2023-04-27T20:38:39.638Z,68.70
2023-04-27T20:41:07.309Z,68.90
2023-04-27T20:43:37.924Z,69.00
2023-04-27T20:46:07.694Z,69.10
2023-04-27T20:48:38.688Z,69.10
2023-04-27T20:51:07.603Z,69.70
2023-04-27T20:53:35.457Z,70.00
2023-04-27T20:56:03.303Z,70.40
2023-04-27T20:58:31.070Z,70.10
2023-04-27T21:01:00.772Z,70.40
2023-04-27T21:03:28.597Z,70.60
2023-04-27T21:05:56.610Z,70.70
2023-04-27T21:08:24.599Z,70.40
2023-04-27T21:10:52.706Z,70.90
2023-04-27T21:13:20.712Z,71.00
2023-04-27T21:15:48.448Z,69.90
2023-04-27T21:18:28.949Z,69.70
2023-04-27T21:20:45.571Z,69.90
2023-04-27T21:23:15.141Z,70.00
2023-04-27T21:25:47.610Z,69.90
2023-04-27T21:28:16.646Z,70.30
2023-04-27T21:30:44.314Z,70.50
2023-04-27T21:33:12.412Z,70.30
2023-04-27T21:35:40.043Z,70.30
2023-04-27T21:38:07.737Z,69.70
2023-04-27T21:40:35.366Z,69.10
2023-04-27T21:43:24.866Z,69.10
2023-04-27T21:45:52.940Z,69.30
2023-04-27T21:48:21.021Z,68.60
2023-04-27T21:50:58.127Z,68.70
2023-04-27T21:53:25.904Z,68.20
2023-04-27T21:55:57.111Z,67.90
2023-04-27T21:58:24.981Z,67.40
2023-04-27T22:00:52.403Z,67.00
2023-04-27T22:03:20.098Z,67.00
2023-04-27T22:05:49.165Z,67.10
2023-04-27T22:08:20.605Z,66.60
2023-04-27T22:10:48.262Z,65.80
2023-04-27T22:13:19.275Z,65.50
2023-04-27T22:15:46.799Z,65.40
2023-04-27T22:18:15.790Z,66.30
2023-04-27T22:20:43.946Z,65.80
2023-04-27T22:23:11.823Z,65.30
2023-04-27T22:25:44.308Z,64.90
2023-04-27T22:28:12.107Z,64.80
2023-04-27T22:30:42.668Z,64.80
2023-04-27T22:33:13.737Z,65.10
2023-04-27T22:35:41.296Z,65.50
2023-04-27T22:38:09.860Z,65.40
2023-04-27T22:40:37.925Z,65.50
2023-04-27T22:43:05.766Z,65.80
2023-04-27T22:45:34.274Z,66.20
2023-04-27T22:48:03.439Z,66.50
2023-04-27T22:50:33.982Z,67.90
2023-04-27T22:53:02.326Z,67.50
2023-04-27T22:55:30.069Z,66.80
2023-04-27T22:57:58.029Z,67.10
2023-04-27T23:00:29.222Z,67.50
2023-04-27T23:02:58.034Z,67.90
2023-04-27T23:05:26.554Z,67.90
2023-04-27T23:07:54.991Z,67.90
2023-04-27T23:10:23.177Z,67.90
2023-04-27T23:12:51.193Z,68.30
2023-04-27T23:15:20.354Z,68.40
2023-04-27T23:17:47.927Z,68.90
2023-04-27T23:20:27.426Z,69.80
2023-04-27T23:22:46.532Z,70.30
2023-04-27T23:25:14.399Z,70.80
2023-04-27T23:27:42.255Z,70.90
2023-04-27T23:30:10.771Z,71.30
2023-04-27T23:32:38.732Z,71.60
2023-04-27T23:35:09.754Z,72.20
2023-04-27T23:38:00.831Z,72.40
2023-04-27T23:40:28.250Z,72.90
2023-04-27T23:42:56.208Z,73.70
2023-04-27T23:45:24.001Z,73.70
2023-04-27T23:47:52.267Z,74.00
2023-04-27T23:50:20.390Z,74.20
2023-04-27T23:52:48.396Z,74.70
2023-04-27T23:55:17.042Z,75.10
2023-04-27T23:57:45.156Z,75.50
